Time,TemperatureF,DewpointF,PressureIn,WindDirection,WindDirectionDegrees,WindSpeedMPH,WindSpeedGustMPH,Humidity,HourlyPrecipIn,Conditions,Clouds,dailyrainin,SoftwareType,DateUTC
2013-07-10 00:10:00,77.6,74.0,29.88,SSW,202,6.0,7.0,89,0.00,,,0.02,weatherlink.com 1.10,2013-07-10 05:10:00,
2013-07-10 00:25:00,77.7,74.0,29.88,SSW,202,4.0,7.0,89,0.00,,,0.02,weatherlink.com 1.10,2013-07-10 05:25:00,
2013-07-10 00:40:00,77.6,74.0,29.87,SSW,205,3.0,7.0,89,0.00,,,0.02,weatherlink.com 1.10,2013-07-10 05:40:00,
2013-07-10 00:55:00,77.9,74.0,29.87,SSW,207,7.0,9.0,88,0.00,,,0.02,weatherlink.com 1.10,2013-07-10 05:55:00,
2013-07-10 01:10:00,78.5,74.0,29.87,SW,222,7.0,10.0,87,0.00,,,0.02,weatherlink.com 1.10,2013-07-10 06:10:00,
2013-07-10 01:25:00,78.6,75.0,29.86,SSW,210,6.0,11.0,87,0.00,,,0.02,weatherlink.com 1.10,2013-07-10 06:25:00,
2013-07-10 01:40:00,78.5,74.0,29.86,SSW,211,6.0,10.0,87,0.00,,,0.02,weatherlink.com 1.10,2013-07-10 06:40:00,
2013-07-10 01:55:00,78.1,74.0,29.86,SSW,213,6.0,11.0,88,0.00,,,0.02,weatherlink.com 1.10,2013-07-10 06:55:00,
2013-07-10 02:10:00,78.2,74.0,29.86,SW,227,8.0,10.0,87,0.00,,,0.02,weatherlink.com 1.10,2013-07-10 07:10:00,
2013-07-10 02:25:00,78.2,74.0,29.85,SW,217,5.0,11.0,87,0.00,,,0.02,weatherlink.com 1.10,2013-07-10 07:25:00,
2013-07-10 02:40:00,78.0,74.0,29.85,SW,229,8.0,10.0,87,0.00,,,0.02,weatherlink.com 1.10,2013-07-10 07:40:00,
2013-07-10 02:55:00,77.8,74.0,29.84,SW,225,7.0,10.0,87,0.00,,,0.02,weatherlink.com 1.10,2013-07-10 07:55:00,
2013-07-10 03:10:00,78.0,74.0,29.84,WSW,239,4.0,9.0,87,0.00,,,0.02,weatherlink.com 1.10,2013-07-10 08:10:00,
2013-07-10 03:25:00,77.8,74.0,29.84,SW,234,3.0,9.0,87,0.00,,,0.02,weatherlink.com 1.10,2013-07-10 08:25:00,
2013-07-10 03:55:00,77.1,73.0,29.84,SW,233,5.0,8.0,88,0.00,,,0.02,weatherlink.com 1.10,2013-07-10 08:55:00,
2013-07-10 04:10:00,76.7,73.0,29.84,SW,232,4.0,7.0,89,0.00,,,0.00,weatherlink.com 1.10,2013-07-10 09:10:00,
2013-07-10 04:25:00,76.2,73.0,29.84,SW,232,5.0,6.0,90,0.00,,,0.00,weatherlink.com 1.10,2013-07-10 09:25:00,
2013-07-10 04:40:00,76.5,74.0,29.83,SW,232,5.0,7.0,90,0.00,,,0.00,weatherlink.com 1.10,2013-07-10 09:40:00,
2013-07-10 04:55:00,77.0,73.0,29.83,SW,215,4.0,8.0,88,0.00,,,0.00,weatherlink.com 1.10,2013-07-10 09:55:00,
2013-07-10 05:10:00,77.1,73.0,29.82,SW,214,3.0,7.0,88,0.00,,,0.00,weatherlink.com 1.10,2013-07-10 10:10:00,
2013-07-10 05:25:00,76.5,73.0,29.82,SW,214,2.0,5.0,89,0.00,,,0.00,weatherlink.com 1.10,2013-07-10 10:25:00,
2013-07-10 05:40:00,76.2,73.0,29.81,SW,214,3.0,5.0,89,0.00,,,0.00,weatherlink.com 1.10,2013-07-10 10:40:00,
2013-07-10 05:55:00,75.9,73.0,29.82,SW,214,3.0,5.0,90,0.00,,,0.00,weatherlink.com 1.10,2013-07-10 10:55:00,
2013-07-10 06:10:00,76.2,73.0,29.81,SW,214,3.0,7.0,90,0.00,,,0.00,weatherlink.com 1.10,2013-07-10 11:10:00,
2013-07-10 06:25:00,76.7,73.0,29.81,SW,214,4.0,6.0,89,0.00,,,0.00,weatherlink.com 1.10,2013-07-10 11:25:00,
2013-07-10 06:40:00,76.8,73.0,29.82,SW,214,5.0,6.0,89,0.00,,,0.00,weatherlink.com 1.10,2013-07-10 11:40:00,
2013-07-10 06:55:00,77.2,74.0,29.83,SW,214,5.0,6.0,88,0.00,,,0.00,weatherlink.com 1.10,2013-07-10 11:55:00,
2013-07-10 07:10:00,77.2,74.0,29.83,SW,227,3.0,8.0,88,0.00,,,0.00,weatherlink.com 1.10,2013-07-10 12:10:00,
2013-07-10 07:25:00,77.2,74.0,29.83,SW,227,2.0,5.0,89,0.00,,,0.00,weatherlink.com 1.10,2013-07-10 12:25:00,
2013-07-10 07:40:00,77.3,74.0,29.84,West,265,1.0,6.0,88,0.00,,,0.00,weatherlink.com 1.10,2013-07-10 12:40:00,
2013-07-10 07:55:00,77.0,73.0,29.84,North,5,1.0,8.0,87,0.00,,,0.00,weatherlink.com 1.10,2013-07-10 12:55:00,
2013-07-10 08:10:00,77.1,72.0,29.84,NE,38,3.0,5.0,85,0.00,,,0.00,weatherlink.com 1.10,2013-07-10 13:10:00,
2013-07-10 08:25:00,78.3,66.0,29.83,SE,144,3.0,7.0,66,0.00,,,0.00,weatherlink.com 1.10,2013-07-10 13:25:00,
2013-07-10 08:40:00,80.1,66.0,29.82,ESE,121,3.0,7.0,63,0.00,,,0.00,weatherlink.com 1.10,2013-07-10 13:40:00,
2013-07-10 08:55:00,76.7,67.0,29.82,ESE,120,4.0,7.0,73,0.11,,,0.11,weatherlink.com 1.10,2013-07-10 13:55:00,
2013-07-10 09:11:00,72.9,69.0,29.83,ESE,120,4.0,5.0,86,0.15,,,0.15,weatherlink.com 1.10,2013-07-10 14:11:00,
2013-07-10 09:26:00,71.6,67.0,29.85,SSE,151,3.0,8.0,86,0.15,,,0.15,weatherlink.com 1.10,2013-07-10 14:26:00,
2013-07-10 09:41:00,72.2,69.0,29.87,SSE,151,4.0,6.0,90,0.15,,,0.15,weatherlink.com 1.10,2013-07-10 14:41:00,
2013-07-10 09:56:00,74.0,72.0,29.86,SW,223,6.0,13.0,93,0.04,,,0.15,weatherlink.com 1.10,2013-07-10 14:56:00,
2013-07-10 10:11:00,73.1,71.0,29.88,SW,214,10.0,15.0,92,0.00,,,0.15,weatherlink.com 1.10,2013-07-10 15:11:00,
2013-07-10 10:41:00,71.8,70.0,29.93,SW,231,14.0,22.0,94,0.07,,,0.22,weatherlink.com 1.10,2013-07-10 15:41:00,
2013-07-10 10:56:00,71.5,70.0,29.93,SSW,202,17.0,26.0,95,0.18,,,0.33,weatherlink.com 1.10,2013-07-10 15:56:00,
2013-07-10 11:11:00,71.2,70.0,29.93,SW,225,10.0,21.0,95,0.19,,,0.34,weatherlink.com 1.10,2013-07-10 16:11:00,
2013-07-10 11:26:00,71.5,70.0,29.93,SSW,213,12.0,18.0,94,0.19,,,0.34,weatherlink.com 1.10,2013-07-10 16:26:00,
2013-07-10 11:41:00,71.8,70.0,29.93,SW,230,7.0,19.0,94,0.11,,,0.34,weatherlink.com 1.10,2013-07-10 16:41:00,
2013-07-10 11:56:00,72.0,70.0,29.93,WSW,246,6.0,13.0,93,0.01,,,0.34,weatherlink.com 1.10,2013-07-10 16:56:00,
2013-07-10 12:11:00,72.9,71.0,29.92,SW,236,12.0,14.0,93,0.00,,,0.34,weatherlink.com 1.10,2013-07-10 17:11:00,
2013-07-10 12:26:00,74.0,72.0,29.92,WSW,241,9.0,18.0,92,0.00,,,0.34,weatherlink.com 1.10,2013-07-10 17:26:00,
2013-07-10 12:41:00,74.9,73.0,29.91,West,268,4.0,14.0,92,0.00,,,0.34,weatherlink.com 1.10,2013-07-10 17:41:00,
2013-07-10 12:56:00,77.6,74.0,29.91,WNW,286,9.0,16.0,87,0.00,,,0.34,weatherlink.com 1.10,2013-07-10 17:56:00,
2013-07-10 13:11:00,79.5,75.0,29.90,WSW,254,7.0,14.0,85,0.00,,,0.34,weatherlink.com 1.10,2013-07-10 18:11:00,
2013-07-10 13:26:00,80.5,75.0,29.89,WSW,244,7.0,13.0,83,0.00,,,0.34,weatherlink.com 1.10,2013-07-10 18:26:00,
2013-07-10 13:41:00,82.3,75.0,29.88,WSW,245,7.0,12.0,78,0.00,,,0.34,weatherlink.com 1.10,2013-07-10 18:41:00,
2013-07-10 13:56:00,83.4,74.0,29.88,NNW,348,1.0,11.0,72,0.00,,,0.34,weatherlink.com 1.10,2013-07-10 18:56:00,
2013-07-10 14:11:00,83.9,72.0,29.88,WNW,284,7.0,10.0,68,0.00,,,0.34,weatherlink.com 1.10,2013-07-10 19:11:00,
2013-07-10 14:26:00,84.4,72.0,29.88,NW,320,4.0,11.0,67,0.00,,,0.34,weatherlink.com 1.10,2013-07-10 19:26:00,
2013-07-10 14:41:00,85.5,70.0,29.87,NW,305,7.0,11.0,61,0.00,,,0.34,weatherlink.com 1.10,2013-07-10 19:41:00,
2013-07-10 14:56:00,85.9,70.0,29.87,NW,311,10.0,10.0,59,0.00,,,0.34,weatherlink.com 1.10,2013-07-10 19:56:00,
2013-07-10 15:11:00,85.7,70.0,29.87,NNW,343,3.0,11.0,60,0.00,,,0.34,weatherlink.com 1.10,2013-07-10 20:11:00,
2013-07-10 15:26:00,85.2,71.0,29.86,NNW,334,7.0,12.0,62,0.00,,,0.34,weatherlink.com 1.10,2013-07-10 20:26:00,
2013-07-10 15:41:00,85.4,70.0,29.86,North,5,2.0,14.0,60,0.00,,,0.34,weatherlink.com 1.10,2013-07-10 20:41:00,
2013-07-10 15:56:00,85.6,69.0,29.85,NW,305,8.0,13.0,58,0.00,,,0.34,weatherlink.com 1.10,2013-07-10 20:56:00,
2013-07-10 16:11:00,85.4,69.0,29.85,WNW,294,11.0,14.0,58,0.00,,,0.34,weatherlink.com 1.10,2013-07-10 21:11:00,
2013-07-10 16:26:00,84.2,71.0,29.85,North,355,8.0,14.0,64,0.00,,,0.34,weatherlink.com 1.10,2013-07-10 21:26:00,
2013-07-10 16:41:00,84.0,70.0,29.85,NNE,12,8.0,13.0,63,0.00,,,0.34,weatherlink.com 1.10,2013-07-10 21:41:00,
2013-07-10 16:56:00,83.6,70.0,29.85,North,355,6.0,14.0,63,0.00,,,0.34,weatherlink.com 1.10,2013-07-10 21:56:00,
2013-07-10 17:11:00,83.4,69.0,29.85,North,350,4.0,15.0,63,0.00,,,0.34,weatherlink.com 1.10,2013-07-10 22:11:00,
2013-07-10 17:26:00,82.6,69.0,29.85,NNE,26,9.0,13.0,63,0.00,,,0.34,weatherlink.com 1.10,2013-07-10 22:26:00,
2013-07-10 17:41:00,82.5,69.0,29.85,WNW,284,6.0,17.0,63,0.00,,,0.34,weatherlink.com 1.10,2013-07-10 22:41:00,
2013-07-10 17:56:00,82.4,68.0,29.85,NW,324,5.0,15.0,62,0.00,,,0.34,weatherlink.com 1.10,2013-07-10 22:56:00,
2013-07-10 18:11:00,81.9,68.0,29.85,North,5,2.0,12.0,63,0.00,,,0.34,weatherlink.com 1.10,2013-07-10 23:11:00,
2013-07-10 18:26:00,81.7,67.0,29.86,NNW,342,8.0,11.0,62,0.00,,,0.34,weatherlink.com 1.10,2013-07-10 23:26:00,
2013-07-10 18:41:00,81.3,67.0,29.87,North,11,5.0,17.0,62,0.00,,,0.34,weatherlink.com 1.10,2013-07-10 23:41:00,
2013-07-10 18:56:00,80.5,66.0,29.87,NNE,12,9.0,16.0,61,0.00,,,0.34,weatherlink.com 1.10,2013-07-10 23:56:00,
2013-07-10 19:11:00,80.3,67.0,29.88,NNW,333,4.0,8.0,63,0.00,,,0.34,weatherlink.com 1.10,2013-07-11 00:11:00,
2013-07-10 19:26:00,80.0,67.0,29.88,NNW,334,3.0,7.0,64,0.00,,,0.34,weatherlink.com 1.10,2013-07-11 00:26:00,
2013-07-10 19:41:00,79.3,67.0,29.89,NNW,345,2.0,6.0,66,0.00,,,0.34,weatherlink.com 1.10,2013-07-11 00:41:00,
2013-07-10 19:56:00,78.2,67.0,29.89,NNW,345,3.0,6.0,68,0.00,,,0.34,weatherlink.com 1.10,2013-07-11 00:56:00,
2013-07-10 20:11:00,77.0,67.0,29.90,NNW,345,5.0,5.0,70,0.00,,,0.34,weatherlink.com 1.10,2013-07-11 01:11:00,
2013-07-10 20:26:00,75.3,67.0,29.91,North,360,2.0,11.0,75,0.00,,,0.34,weatherlink.com 1.10,2013-07-11 01:26:00,
2013-07-10 20:41:00,73.9,67.0,29.91,North,360,4.0,7.0,78,0.00,,,0.34,weatherlink.com 1.10,2013-07-11 01:41:00,
2013-07-10 20:56:00,73.5,66.0,29.92,NNW,343,5.0,8.0,76,0.00,,,0.34,weatherlink.com 1.10,2013-07-11 01:56:00,
2013-07-10 21:11:00,72.8,64.0,29.93,North,9,6.0,8.0,75,0.00,,,0.34,weatherlink.com 1.10,2013-07-11 02:11:00,
2013-07-10 21:26:00,71.7,63.0,29.93,NNE,15,4.0,7.0,75,0.00,,,0.34,weatherlink.com 1.10,2013-07-11 02:26:00,
2013-07-10 21:41:00,70.5,63.0,29.94,NNE,22,4.0,9.0,78,0.00,,,0.34,weatherlink.com 1.10,2013-07-11 02:41:00,
2013-07-10 21:57:00,69.6,64.0,29.95,NE,36,1.0,5.0,82,0.00,,,0.34,weatherlink.com 1.10,2013-07-11 02:57:00,
2013-07-10 22:12:00,69.8,64.0,29.96,ENE,71,3.0,6.0,83,0.00,,,0.34,weatherlink.com 1.10,2013-07-11 03:12:00,
2013-07-10 22:27:00,69.4,65.0,29.96,NE,44,1.0,6.0,86,0.00,,,0.34,weatherlink.com 1.10,2013-07-11 03:27:00,
2013-07-10 22:42:00,69.2,65.0,29.96,NE,44,1.0,4.0,86,0.00,,,0.34,weatherlink.com 1.10,2013-07-11 03:42:00,
2013-07-10 22:57:00,68.6,64.0,29.96,NE,44,3.0,4.0,86,0.00,,,0.34,weatherlink.com 1.10,2013-07-11 03:57:00,
2013-07-10 23:12:00,68.2,64.0,29.97,NE,52,4.0,6.0,86,0.00,,,0.34,weatherlink.com 1.10,2013-07-11 04:12:00,
2013-07-10 23:27:00,68.0,63.0,29.97,ENE,61,2.0,6.0,85,0.00,,,0.34,weatherlink.com 1.10,2013-07-11 04:27:00,
2013-07-10 23:42:00,68.0,63.0,29.97,ENE,69,3.0,5.0,85,0.00,,,0.34,weatherlink.com 1.10,2013-07-11 04:42:00,
2013-07-10 23:57:00,67.7,63.0,29.98,ENE,69,0.0,4.0,85,0.00,,,0.34,weatherlink.com 1.10,2013-07-11 04:57:00,